createdAt,value
2019-01-30T00:00:00.554Z,24.47
2019-01-30T00:02:27.602Z,24.70
2019-01-30T00:04:54.686Z,24.40
2019-01-30T00:07:21.747Z,23.18
2019-01-30T00:09:50.626Z,24.07
2019-01-30T00:12:18.064Z,24.75
2019-01-30T00:14:47.030Z,24.32
2019-01-30T00:17:14.103Z,24.75
2019-01-30T00:19:41.176Z,24.67
2019-01-30T00:22:08.553Z,24.72
2019-01-30T00:24:35.627Z,23.57
2019-01-30T00:27:03.188Z,22.55
2019-01-30T00:29:30.589Z,24.85
2019-01-30T00:31:58.381Z,23.60
2019-01-30T00:34:28.332Z,23.87
2019-01-30T00:36:55.399Z,23.70
2019-01-30T00:39:22.483Z,23.50
2019-01-30T00:41:50.747Z,24.47
2019-01-30T00:44:17.961Z,23.38
2019-01-30T00:46:45.719Z,26.73
2019-01-30T00:49:13.174Z,22.85
2019-01-30T00:51:40.259Z,25.65
2019-01-30T00:54:07.678Z,23.90
2019-01-30T00:56:35.446Z,22.73
2019-01-30T00:59:03.852Z,23.35
2019-01-30T01:01:31.589Z,24.15
2019-01-30T01:03:59.350Z,23.95
2019-01-30T01:06:27.553Z,23.00
2019-01-30T01:08:54.978Z,22.27
2019-01-30T01:11:22.337Z,22.60
2019-01-30T01:13:49.997Z,22.67
2019-01-30T01:16:17.454Z,22.30
2019-01-30T01:18:44.807Z,21.87
2019-01-30T01:21:13.287Z,21.82
2019-01-30T01:23:40.946Z,23.98
2019-01-30T01:26:08.019Z,24.32
2019-01-30T01:28:35.128Z,23.55
2019-01-30T01:31:02.816Z,24.55
2019-01-30T01:33:30.256Z,23.10
2019-01-30T01:35:57.614Z,21.55
2019-01-30T01:38:25.072Z,22.48
2019-01-30T01:40:52.733Z,21.75
2019-01-30T01:43:20.120Z,23.38
2019-01-30T01:45:48.569Z,21.12
2019-01-30T01:48:15.831Z,22.67
2019-01-30T01:50:42.884Z,22.20
2019-01-30T01:53:11.749Z,21.25
2019-01-30T01:55:38.823Z,23.35
2019-01-30T01:58:05.966Z,23.18
2019-01-30T02:00:35.599Z,23.30
2019-01-30T02:03:02.299Z,20.85
2019-01-30T02:05:29.367Z,22.05
2019-01-30T02:07:57.111Z,20.77
2019-01-30T02:10:24.680Z,21.90
2019-01-30T02:12:52.137Z,20.70
2019-01-30T02:15:21.055Z,21.35
2019-01-30T02:17:48.123Z,22.42
2019-01-30T02:20:17.561Z,22.75
2019-01-30T02:22:44.641Z,21.97
2019-01-30T02:25:13.313Z,21.07
2019-01-30T02:27:40.406Z,23.73
2019-01-30T02:30:12.412Z,21.45
2019-01-30T02:32:39.856Z,21.02
2019-01-30T02:35:07.004Z,22.15
2019-01-30T02:37:34.590Z,22.25
2019-01-30T02:40:02.869Z,21.87
2019-01-30T02:42:30.031Z,24.27
2019-01-30T02:44:58.932Z,21.65
2019-01-30T02:47:25.997Z,18.80
2019-01-30T02:49:53.466Z,21.25
2019-01-30T02:52:21.560Z,22.60
2019-01-30T02:54:48.936Z,20.80
2019-01-30T02:57:16.290Z,20.25
2019-01-30T02:59:43.746Z,20.90
2019-01-30T03:02:20.582Z,22.02
2019-01-30T03:04:47.999Z,22.10
2019-01-30T03:07:15.433Z,21.40
2019-01-30T03:09:42.787Z,19.25
2019-01-30T03:12:11.269Z,20.12
2019-01-30T03:14:38.622Z,20.65
2019-01-30T03:17:06.820Z,19.17
2019-01-30T03:19:34.561Z,19.90
2019-01-30T03:22:02.691Z,20.75
2019-01-30T03:24:30.701Z,19.98
2019-01-30T03:26:58.158Z,18.90
2019-01-30T03:29:26.947Z,20.43
2019-01-30T03:31:54.722Z,19.37
2019-01-30T03:34:21.777Z,19.20
2019-01-30T03:36:49.212Z,19.45
2019-01-30T03:39:16.570Z,20.25
2019-01-30T03:41:44.237Z,18.32
2019-01-30T03:44:11.995Z,22.22
2019-01-30T03:46:39.081Z,18.60
2019-01-30T03:49:06.133Z,18.20
2019-01-30T03:51:33.546Z,20.23
2019-01-30T03:54:00.603Z,19.48
2019-01-30T03:56:27.703Z,18.23
2019-01-30T03:58:55.542Z,18.77
2019-01-30T04:01:26.687Z,20.35
2019-01-30T04:03:52.980Z,17.07
2019-01-30T04:06:20.337Z,20.12
2019-01-30T04:08:48.000Z,18.70
2019-01-30T04:11:16.033Z,20.82
2019-01-30T04:13:43.833Z,18.77
2019-01-30T04:16:11.203Z,18.73
2019-01-30T04:18:38.594Z,21.55
2019-01-30T04:21:06.304Z,18.25
2019-01-30T04:23:33.385Z,17.95
2019-01-30T04:26:01.544Z,18.98
2019-01-30T04:28:29.211Z,17.87
2019-01-30T04:30:57.668Z,18.62
2019-01-30T04:33:26.047Z,20.02
2019-01-30T04:35:53.582Z,18.20
2019-01-30T04:38:21.268Z,20.02
2019-01-30T04:40:48.666Z,17.98
2019-01-30T04:43:18.021Z,19.25
2019-01-30T04:45:45.376Z,18.57
2019-01-30T04:48:12.730Z,18.62
2019-01-30T04:50:59.957Z,18.23
2019-01-30T04:53:44.496Z,17.95
2019-01-30T04:56:30.325Z,15.43
2019-01-30T04:59:13.501Z,16.75
2019-01-30T05:01:55.403Z,17.62
2019-01-30T05:04:38.412Z,17.82
2019-01-30T05:07:14.760Z,16.73
2019-01-30T05:10:02.411Z,14.73
2019-01-30T05:12:53.173Z,16.93
2019-01-30T05:15:30.455Z,17.50
2019-01-30T05:18:15.987Z,18.92
2019-01-30T05:21:06.841Z,16.67
2019-01-30T05:23:50.034Z,15.30
2019-01-30T05:26:36.155Z,17.32
2019-01-30T05:29:14.843Z,17.60
2019-01-30T05:32:00.924Z,17.50
2019-01-30T05:34:25.686Z,16.30
2019-01-30T05:37:13.052Z,18.23
2019-01-30T05:39:53.336Z,15.55
2019-01-30T05:42:21.884Z,19.00
2019-01-30T05:44:50.389Z,16.65
2019-01-30T05:47:18.922Z,16.20
2019-01-30T05:49:46.628Z,17.37
2019-01-30T05:52:13.720Z,16.97
2019-01-30T05:54:40.772Z,17.65
2019-01-30T05:57:09.268Z,16.52
2019-01-30T05:59:37.126Z,15.30
2019-01-30T06:02:11.837Z,17.15
2019-01-30T06:04:34.683Z,17.70
2019-01-30T06:07:02.816Z,16.70
2019-01-30T06:09:29.919Z,16.95
2019-01-30T06:11:57.111Z,15.95
2019-01-30T06:14:24.210Z,16.55
2019-01-30T06:16:51.622Z,15.30
2019-01-30T06:19:18.706Z,15.95
2019-01-30T06:21:46.075Z,16.40
2019-01-30T06:24:13.893Z,13.20
2019-01-30T06:26:41.347Z,18.15
2019-01-30T06:29:09.110Z,16.30
2019-01-30T06:31:37.387Z,17.60
2019-01-30T06:34:05.159Z,16.02
2019-01-30T06:36:33.631Z,16.42
2019-01-30T06:39:01.327Z,15.88
2019-01-30T06:41:30.492Z,15.05
2019-01-30T06:43:57.990Z,16.70
2019-01-30T06:46:25.304Z,15.38
2019-01-30T06:48:52.761Z,15.20
2019-01-30T06:51:20.219Z,13.90
2019-01-30T06:53:47.329Z,15.35
2019-01-30T06:56:14.719Z,14.90
2019-01-30T06:58:42.488Z,17.12
2019-01-30T07:01:10.968Z,16.87
2019-01-30T07:03:38.356Z,15.98
2019-01-30T07:06:07.726Z,15.50
2019-01-30T07:08:34.454Z,16.15
2019-01-30T07:11:10.384Z,14.90
2019-01-30T07:13:30.817Z,16.20
2019-01-30T07:15:58.272Z,14.83
2019-01-30T07:18:25.622Z,14.63
2019-01-30T07:20:54.205Z,15.95
2019-01-30T07:23:21.970Z,15.10
2019-01-30T07:25:49.524Z,15.98
2019-01-30T07:28:18.010Z,14.55
2019-01-30T07:30:45.119Z,13.53
2019-01-30T07:33:12.361Z,15.08
2019-01-30T07:35:39.471Z,14.78
2019-01-30T07:38:07.224Z,13.25
2019-01-30T07:40:34.575Z,14.80
2019-01-30T07:43:02.132Z,15.15
2019-01-30T07:45:30.819Z,14.10
2019-01-30T07:47:58.022Z,13.90
2019-01-30T07:50:25.731Z,14.07
2019-01-30T07:52:53.395Z,13.55
2019-01-30T07:55:20.442Z,16.05
2019-01-30T07:57:49.944Z,14.55
2019-01-30T08:00:22.832Z,14.18
2019-01-30T08:02:53.270Z,12.58
2019-01-30T08:05:19.289Z,12.23
2019-01-30T08:07:46.383Z,12.47
2019-01-30T08:10:13.540Z,12.18
2019-01-30T08:12:40.645Z,13.68
2019-01-30T08:15:10.825Z,12.18
2019-01-30T08:17:37.918Z,11.73
2019-01-30T08:20:09.442Z,12.15
2019-01-30T08:22:36.541Z,13.78
2019-01-30T08:25:05.718Z,13.00
2019-01-30T08:27:34.633Z,12.35
2019-01-30T08:30:05.721Z,13.58
2019-01-30T08:32:33.734Z,11.50
2019-01-30T08:35:01.193Z,11.90
2019-01-30T08:37:29.433Z,12.75
2019-01-30T08:39:56.513Z,11.73
2019-01-30T08:42:23.926Z,10.98
2019-01-30T08:44:51.351Z,11.10
2019-01-30T08:47:18.429Z,13.05
2019-01-30T08:49:45.483Z,11.20
2019-01-30T08:52:12.530Z,11.97
2019-01-30T08:54:39.646Z,11.48
2019-01-30T08:57:06.795Z,11.78
2019-01-30T08:59:35.251Z,11.50
2019-01-30T09:02:02.662Z,11.70
2019-01-30T09:04:30.080Z,12.13
2019-01-30T09:06:59.596Z,10.75
2019-01-30T09:09:26.978Z,12.82
2019-01-30T09:11:54.849Z,11.63
2019-01-30T09:14:22.301Z,12.10
2019-01-30T09:16:49.432Z,12.65
2019-01-30T09:19:17.215Z,9.80
2019-01-30T09:21:46.101Z,10.40
2019-01-30T09:24:16.234Z,11.83
2019-01-30T09:26:43.788Z,12.23
2019-01-30T09:29:12.906Z,12.05
2019-01-30T09:31:40.336Z,12.25
2019-01-30T09:34:07.409Z,12.78
2019-01-30T09:36:36.886Z,11.30
2019-01-30T09:39:07.570Z,11.57
2019-01-30T09:41:34.860Z,11.73
2019-01-30T09:44:02.248Z,13.10
2019-01-30T09:46:29.336Z,11.53
2019-01-30T09:48:57.143Z,12.35
2019-01-30T09:51:24.598Z,11.53
2019-01-30T09:53:52.135Z,11.10
2019-01-30T09:56:19.518Z,10.82
2019-01-30T09:58:46.853Z,10.38
2019-01-30T10:01:14.326Z,9.48
2019-01-30T10:03:41.773Z,9.20
2019-01-30T10:06:09.504Z,9.25
2019-01-30T10:08:36.602Z,8.45
2019-01-30T10:11:03.831Z,9.48
2019-01-30T10:13:30.917Z,9.10
2019-01-30T10:15:59.190Z,9.25
2019-01-30T10:18:28.240Z,9.50
2019-01-30T10:20:55.835Z,10.40
2019-01-30T10:23:23.960Z,9.68
2019-01-30T10:25:51.033Z,9.10
2019-01-30T10:28:18.239Z,10.08
2019-01-30T10:30:45.796Z,8.20
2019-01-30T10:33:12.896Z,8.20
2019-01-30T10:35:40.114Z,6.87
2019-01-30T10:38:07.335Z,8.23
2019-01-30T10:40:34.378Z,8.25
2019-01-30T10:43:01.484Z,7.83
2019-01-30T10:45:28.559Z,8.53
2019-01-30T10:47:55.663Z,8.15
2019-01-30T10:50:25.097Z,6.75
2019-01-30T10:52:52.381Z,9.05
2019-01-30T10:55:21.739Z,7.67
2019-01-30T10:57:51.207Z,7.20
2019-01-30T11:00:23.715Z,8.05
2019-01-30T11:02:50.828Z,7.45
2019-01-30T11:05:19.686Z,8.20
2019-01-30T11:07:47.025Z,7.30
2019-01-30T11:10:15.961Z,8.55
2019-01-30T11:12:43.030Z,7.15
2019-01-30T11:15:12.662Z,8.75
2019-01-30T11:17:39.786Z,8.70
2019-01-30T11:20:08.386Z,9.65
2019-01-30T11:22:35.759Z,9.50
2019-01-30T11:25:05.636Z,8.00
2019-01-30T11:27:32.783Z,10.00
2019-01-30T11:30:01.203Z,8.20
2019-01-30T11:32:29.800Z,9.00
2019-01-30T11:34:57.222Z,8.25
2019-01-30T11:37:26.852Z,7.58
2019-01-30T11:39:54.443Z,9.25
2019-01-30T11:42:22.379Z,8.50
2019-01-30T11:44:49.487Z,8.98
2019-01-30T11:47:16.883Z,9.48
2019-01-30T11:49:46.002Z,8.00
2019-01-30T11:52:13.053Z,7.50
2019-01-30T11:54:40.542Z,9.40
2019-01-30T11:57:07.942Z,8.05
2019-01-30T11:59:36.143Z,8.15
2019-01-30T12:02:03.229Z,7.22
2019-01-30T12:04:30.752Z,8.38
2019-01-30T12:06:58.488Z,7.58
2019-01-30T12:09:30.647Z,7.50
2019-01-30T12:11:58.874Z,7.78
2019-01-30T12:14:28.323Z,7.58
2019-01-30T12:16:55.772Z,8.33
2019-01-30T12:19:24.366Z,7.70
2019-01-30T12:21:52.032Z,7.37
2019-01-30T12:24:19.383Z,7.75
2019-01-30T12:26:47.067Z,7.20
2019-01-30T12:29:14.131Z,7.35
2019-01-30T12:31:42.285Z,7.50
2019-01-30T12:34:09.723Z,7.30
2019-01-30T12:36:38.112Z,8.88
2019-01-30T12:39:08.831Z,7.40
2019-01-30T12:41:36.700Z,6.35
2019-01-30T12:44:05.892Z,7.30
2019-01-30T12:46:32.959Z,6.72
2019-01-30T12:49:00.061Z,7.97
2019-01-30T12:51:27.156Z,6.60
2019-01-30T12:53:54.223Z,8.95
2019-01-30T12:56:22.410Z,6.78
2019-01-30T12:58:50.521Z,7.20
2019-01-30T13:01:17.598Z,7.83
2019-01-30T13:03:45.188Z,7.25
2019-01-30T13:06:14.442Z,6.55
2019-01-30T13:08:41.810Z,6.53
2019-01-30T13:11:10.274Z,5.58
2019-01-30T13:13:37.347Z,6.20
2019-01-30T13:16:05.906Z,6.15
2019-01-30T13:18:33.370Z,6.42
2019-01-30T13:21:00.456Z,5.47
2019-01-30T13:23:28.890Z,6.03
2019-01-30T13:25:55.974Z,6.67
2019-01-30T13:28:23.040Z,5.37
2019-01-30T13:30:51.471Z,5.30
2019-01-30T13:33:19.232Z,5.47
2019-01-30T13:35:46.369Z,5.30
2019-01-30T13:38:13.848Z,5.95
2019-01-30T13:40:41.539Z,5.75
2019-01-30T13:43:09.059Z,5.60
2019-01-30T13:45:36.167Z,6.50
2019-01-30T13:48:06.012Z,6.40
2019-01-30T13:50:33.410Z,6.20
2019-01-30T13:53:00.469Z,6.12
2019-01-30T13:55:28.114Z,6.05
2019-01-30T13:57:55.236Z,6.55
2019-01-30T14:00:27.022Z,6.28
2019-01-30T14:02:54.757Z,9.15
2019-01-30T14:05:21.915Z,8.05
2019-01-30T14:07:49.911Z,6.22
2019-01-30T14:10:17.753Z,8.20
2019-01-30T14:12:45.978Z,6.67
2019-01-30T14:15:15.101Z,6.50
2019-01-30T14:17:43.612Z,6.25
2019-01-30T14:20:12.037Z,8.05
2019-01-30T14:22:39.087Z,6.40
2019-01-30T14:25:07.813Z,5.12
2019-01-30T14:27:36.080Z,4.67
2019-01-30T14:30:05.907Z,5.47
2019-01-30T14:32:34.784Z,5.55
2019-01-30T14:35:10.572Z,5.40
2019-01-30T14:37:30.867Z,6.28
2019-01-30T14:39:58.251Z,6.12
2019-01-30T14:42:26.967Z,6.47
2019-01-30T14:44:54.340Z,6.05
2019-01-30T14:47:24.232Z,7.20
2019-01-30T14:49:52.096Z,6.42
2019-01-30T14:52:20.915Z,5.75
2019-01-30T14:54:49.127Z,4.90
2019-01-30T14:57:16.209Z,4.75
2019-01-30T14:59:43.330Z,6.42
2019-01-30T15:02:10.504Z,5.40
2019-01-30T15:04:38.892Z,6.70
2019-01-30T15:07:06.394Z,6.00
2019-01-30T15:09:34.807Z,5.55
2019-01-30T15:12:01.884Z,6.00
2019-01-30T15:14:28.964Z,6.45
2019-01-30T15:16:56.073Z,7.10
2019-01-30T15:19:26.148Z,6.85
2019-01-30T15:21:53.324Z,7.28
2019-01-30T15:24:20.418Z,6.42
2019-01-30T15:26:47.748Z,6.85
2019-01-30T15:29:16.654Z,7.22
2019-01-30T15:31:44.119Z,6.80
2019-01-30T15:34:11.240Z,5.28
2019-01-30T15:36:38.368Z,7.70
2019-01-30T15:39:08.363Z,7.40
2019-01-30T15:41:35.845Z,6.40
2019-01-30T15:44:02.931Z,6.42
2019-01-30T15:46:30.025Z,6.17
2019-01-30T15:48:57.419Z,6.20
2019-01-30T15:51:24.520Z,7.12
2019-01-30T15:53:51.601Z,6.42
2019-01-30T15:56:18.797Z,6.47
2019-01-30T15:58:48.267Z,6.60
2019-01-30T16:01:23.298Z,6.70
2019-01-30T16:03:50.753Z,7.87
2019-01-30T16:06:18.111Z,6.47
2019-01-30T16:08:45.883Z,7.08
2019-01-30T16:11:13.231Z,7.12
2019-01-30T16:13:41.620Z,6.50
2019-01-30T16:16:10.526Z,6.92
2019-01-30T16:18:37.855Z,7.75
2019-01-30T16:21:04.979Z,7.12
2019-01-30T16:23:33.382Z,8.88
2019-01-30T16:26:01.560Z,7.45
2019-01-30T16:28:32.664Z,8.20
2019-01-30T16:30:59.756Z,7.92
2019-01-30T16:33:27.216Z,7.72
2019-01-30T16:35:56.623Z,8.10
2019-01-30T16:38:23.749Z,9.10
2019-01-30T16:40:50.936Z,8.15
2019-01-30T16:43:20.416Z,8.95
2019-01-30T16:45:47.875Z,7.83
2019-01-30T16:48:15.142Z,9.18
2019-01-30T16:50:42.347Z,9.23
2019-01-30T16:53:09.831Z,8.50
2019-01-30T16:55:37.930Z,9.05
2019-01-30T16:58:07.401Z,8.80
2019-01-30T17:00:35.632Z,9.35
2019-01-30T17:03:02.812Z,8.88
2019-01-30T17:05:30.243Z,8.70
2019-01-30T17:07:57.894Z,8.65
2019-01-30T17:10:24.985Z,8.75
2019-01-30T17:12:52.414Z,10.23
2019-01-30T17:15:21.755Z,9.83
2019-01-30T17:17:50.624Z,11.60
2019-01-30T17:20:22.838Z,9.60
2019-01-30T17:22:49.890Z,9.48
2019-01-30T17:25:18.988Z,10.25
2019-01-30T17:27:56.626Z,8.78
2019-01-30T17:30:47.753Z,8.93
2019-01-30T17:33:17.437Z,11.38
2019-01-30T17:35:52.509Z,9.63
2019-01-30T17:38:32.297Z,11.17
2019-01-30T17:41:01.585Z,10.03
2019-01-30T17:43:32.419Z,9.90
2019-01-30T17:46:10.942Z,10.10
2019-01-30T17:48:50.495Z,9.78
2019-01-30T17:51:30.267Z,9.38
2019-01-30T17:54:00.753Z,10.13
2019-01-30T17:56:39.781Z,10.00
2019-01-30T17:59:08.325Z,10.82
2019-01-30T18:01:35.989Z,10.58
2019-01-30T18:04:04.671Z,10.20
2019-01-30T18:06:32.571Z,10.82
2019-01-30T18:08:59.639Z,12.20
2019-01-30T18:11:28.134Z,11.33
2019-01-30T18:13:55.413Z,10.23
2019-01-30T18:16:26.909Z,10.45
2019-01-30T18:18:53.985Z,13.08
2019-01-30T18:21:25.265Z,12.10
2019-01-30T18:23:52.431Z,10.93
2019-01-30T18:26:21.541Z,12.37
2019-01-30T18:28:50.667Z,10.78
2019-01-30T18:31:17.737Z,10.30
2019-01-30T18:33:44.821Z,12.70
2019-01-30T18:36:13.022Z,11.78
2019-01-30T18:38:40.471Z,12.18
2019-01-30T18:41:07.547Z,12.60
2019-01-30T18:43:35.141Z,12.40
2019-01-30T18:46:02.494Z,11.15
2019-01-30T18:48:29.794Z,13.03
2019-01-30T18:50:57.131Z,12.33
2019-01-30T18:53:24.867Z,11.05
2019-01-30T18:55:52.247Z,13.05
2019-01-30T18:58:21.419Z,12.15
2019-01-30T19:00:48.505Z,11.38
2019-01-30T19:03:17.237Z,12.07
2019-01-30T19:05:44.310Z,11.73
2019-01-30T19:08:11.754Z,12.65
2019-01-30T19:10:38.948Z,13.15
2019-01-30T19:13:06.388Z,12.30
2019-01-30T19:15:33.824Z,13.50
2019-01-30T19:18:00.939Z,11.83
2019-01-30T19:20:30.368Z,13.08
2019-01-30T19:22:57.455Z,13.35
2019-01-30T19:25:24.878Z,12.73
2019-01-30T19:27:52.336Z,14.60
2019-01-30T19:30:24.494Z,12.95
2019-01-30T19:32:52.470Z,12.88
2019-01-30T19:35:19.856Z,13.83
2019-01-30T19:37:47.085Z,12.53
2019-01-30T19:40:15.605Z,12.07
2019-01-30T19:42:42.728Z,13.70
2019-01-30T19:45:11.691Z,12.13
2019-01-30T19:47:38.895Z,12.25
2019-01-30T19:50:09.985Z,13.03
2019-01-30T19:52:37.348Z,11.18
2019-01-30T19:55:04.973Z,12.47
2019-01-30T19:57:32.054Z,12.00
2019-01-30T19:59:59.756Z,13.15
2019-01-30T20:02:26.965Z,12.53
2019-01-30T20:04:55.076Z,14.13
2019-01-30T20:07:22.495Z,11.57
2019-01-30T20:09:50.264Z,12.03
2019-01-30T20:12:17.343Z,12.88
2019-01-30T20:14:45.527Z,12.85
2019-01-30T20:17:12.616Z,12.50
2019-01-30T20:19:40.292Z,11.78
2019-01-30T20:22:10.001Z,12.13
2019-01-30T20:24:38.401Z,12.58
2019-01-30T20:27:05.710Z,11.88
2019-01-30T20:29:35.442Z,13.22
2019-01-30T20:32:02.962Z,11.15
2019-01-30T20:34:30.159Z,12.88
2019-01-30T20:36:57.355Z,11.65
2019-01-30T20:39:24.714Z,10.80
2019-01-30T20:41:53.596Z,12.98
2019-01-30T20:44:20.859Z,11.25
2019-01-30T20:46:47.927Z,11.55
2019-01-30T20:49:15.074Z,10.13
2019-01-30T20:51:43.193Z,12.53
2019-01-30T20:54:10.335Z,12.00
2019-01-30T20:56:37.379Z,12.65
2019-01-30T20:59:04.536Z,11.95
2019-01-30T21:01:31.615Z,12.82
2019-01-30T21:03:58.655Z,13.32
2019-01-30T21:06:25.756Z,11.73
2019-01-30T21:08:54.123Z,12.70
2019-01-30T21:11:21.163Z,11.60
2019-01-30T21:13:48.324Z,12.50
2019-01-30T21:16:15.373Z,12.98
2019-01-30T21:18:44.212Z,12.03
2019-01-30T21:21:11.463Z,12.45
2019-01-30T21:23:38.498Z,13.48
2019-01-30T21:26:05.830Z,12.98
2019-01-30T21:28:32.896Z,12.13
2019-01-30T21:30:59.963Z,14.18
2019-01-30T21:33:27.988Z,12.53
2019-01-30T21:35:55.546Z,11.88
2019-01-30T21:38:24.026Z,13.25
2019-01-30T21:40:51.083Z,13.45
2019-01-30T21:43:18.406Z,14.28
2019-01-30T21:45:47.005Z,12.85
2019-01-30T21:48:14.054Z,12.63
2019-01-30T21:50:41.410Z,13.20
2019-01-30T21:53:08.458Z,14.20
2019-01-30T21:55:36.543Z,12.90
2019-01-30T21:58:05.113Z,13.40
2019-01-30T22:00:32.570Z,13.40
2019-01-30T22:03:00.438Z,11.88
2019-01-30T22:05:28.609Z,12.35
2019-01-30T22:08:00.887Z,13.18
2019-01-30T22:10:26.618Z,12.37
2019-01-30T22:12:54.255Z,12.90
2019-01-30T22:15:22.226Z,13.45
2019-01-30T22:17:49.584Z,11.83
2019-01-30T22:20:21.766Z,13.37
2019-01-30T22:22:50.141Z,12.93
2019-01-30T22:25:20.648Z,12.85
2019-01-30T22:27:47.620Z,13.72
2019-01-30T22:30:26.521Z,12.68
2019-01-30T22:32:54.495Z,14.23
2019-01-30T22:35:22.155Z,12.93
2019-01-30T22:37:49.210Z,13.58
2019-01-30T22:40:16.287Z,14.18
2019-01-30T22:42:43.341Z,12.75
2019-01-30T22:45:12.443Z,13.68
2019-01-30T22:47:40.259Z,14.10
2019-01-30T22:50:08.784Z,13.03
2019-01-30T22:52:38.045Z,13.83
2019-01-30T22:55:06.711Z,14.90
2019-01-30T22:57:34.387Z,12.10
2019-01-30T23:00:01.503Z,14.00
2019-01-30T23:02:31.554Z,13.65
2019-01-30T23:05:17.894Z,13.98
2019-01-30T23:08:10.018Z,13.00
2019-01-30T23:11:14.704Z,14.20
2019-01-30T23:14:08.987Z,14.58
2019-01-30T23:17:19.575Z,13.32
2019-01-30T23:20:22.759Z,13.68
2019-01-30T23:23:18.125Z,14.33
2019-01-30T23:26:11.539Z,14.13
2019-01-30T23:29:31.618Z,13.48
2019-01-30T23:32:37.078Z,13.58
2019-01-30T23:36:00.017Z,13.20
2019-01-30T23:39:24.022Z,12.47
2019-01-30T23:42:23.590Z,13.72
2019-01-30T23:44:58.392Z,12.93
2019-01-30T23:47:51.417Z,14.63
2019-01-30T23:50:46.661Z,14.07
2019-01-30T23:54:13.911Z,14.00
2019-01-30T23:57:40.814Z,14.60
